sensor_id;sensor_type;location;lat;lon;timestamp;temperature;humidity
75105;DHT22;64778;47.314;8.466;2023-03-01T00:01:35;-0.10;80.60
75105;DHT22;64778;47.314;8.466;2023-03-01T00:07:19;-0.10;80.80
75105;DHT22;64778;47.314;8.466;2023-03-01T00:09:47;-0.20;81.00
75105;DHT22;64778;47.314;8.466;2023-03-01T00:15:39;-0.10;80.50
75105;DHT22;64778;47.314;8.466;2023-03-01T00:18:07;0.00;80.30
75105;DHT22;64778;47.314;8.466;2023-03-01T00:20:34;0.00;80.40
75105;DHT22;64778;47.314;8.466;2023-03-01T00:23:04;0.00;80.60
75105;DHT22;64778;47.314;8.466;2023-03-01T00:25:41;0.00;80.10
75105;DHT22;64778;47.314;8.466;2023-03-01T00:28:09;0.10;80.00
75105;DHT22;64778;47.314;8.466;2023-03-01T00:30:35;0.10;79.90
75105;DHT22;64778;47.314;8.466;2023-03-01T00:33:00;0.10;80.20
75105;DHT22;64778;47.314;8.466;2023-03-01T00:35:26;0.20;79.80
75105;DHT22;64778;47.314;8.466;2023-03-01T00:37:52;0.20;79.70
75105;DHT22;64778;47.314;8.466;2023-03-01T00:40:27;0.00;80.00
75105;DHT22;64778;47.314;8.466;2023-03-01T00:42:53;-0.10;80.60
75105;DHT22;64778;47.314;8.466;2023-03-01T00:45:18;-0.10;81.10
75105;DHT22;64778;47.314;8.466;2023-03-01T00:47:44;0.00;80.50
75105;DHT22;64778;47.314;8.466;2023-03-01T00:50:11;-0.20;80.90
75105;DHT22;64778;47.314;8.466;2023-03-01T00:52:37;-0.10;80.90
75105;DHT22;64778;47.314;8.466;2023-03-01T00:55:06;-0.10;80.80
75105;DHT22;64778;47.314;8.466;2023-03-01T00:57:37;-0.10;80.90
75105;DHT22;64778;47.314;8.466;2023-03-01T01:03:26;0.00;80.80
75105;DHT22;64778;47.314;8.466;2023-03-01T01:09:17;0.00;80.70
75105;DHT22;64778;47.314;8.466;2023-03-01T01:11:47;0.10;81.00
75105;DHT22;64778;47.314;8.466;2023-03-01T01:14:13;0.10;80.90
75105;DHT22;64778;47.314;8.466;2023-03-01T01:16:45;0.10;80.70
75105;DHT22;64778;47.314;8.466;2023-03-01T01:19:11;0.20;80.50
75105;DHT22;64778;47.314;8.466;2023-03-01T01:21:40;0.10;80.80
75105;DHT22;64778;47.314;8.466;2023-03-01T01:24:08;0.00;81.00
75105;DHT22;64778;47.314;8.466;2023-03-01T01:26:34;0.10;80.90
75105;DHT22;64778;47.314;8.466;2023-03-01T01:29:01;0.10;80.60
75105;DHT22;64778;47.314;8.466;2023-03-01T01:34:45;0.20;80.70
75105;DHT22;64778;47.314;8.466;2023-03-01T01:37:16;0.20;80.70
75105;DHT22;64778;47.314;8.466;2023-03-01T01:39:41;0.10;81.00
75105;DHT22;64778;47.314;8.466;2023-03-01T01:42:16;0.00;81.20
75105;DHT22;64778;47.314;8.466;2023-03-01T01:44:45;0.00;81.10
75105;DHT22;64778;47.314;8.466;2023-03-01T01:47:20;0.10;80.90
75105;DHT22;64778;47.314;8.466;2023-03-01T01:49:53;0.20;80.90
75105;DHT22;64778;47.314;8.466;2023-03-01T01:52:23;0.20;81.00
75105;DHT22;64778;47.314;8.466;2023-03-01T01:54:55;0.10;80.70
75105;DHT22;64778;47.314;8.466;2023-03-01T01:57:43;0.10;81.20
75105;DHT22;64778;47.314;8.466;2023-03-01T02:00:14;0.20;81.10
75105;DHT22;64778;47.314;8.466;2023-03-01T02:02:44;0.20;81.00
75105;DHT22;64778;47.314;8.466;2023-03-01T02:07:51;0.10;81.40
75105;DHT22;64778;47.314;8.466;2023-03-01T02:10:17;0.10;81.50
75105;DHT22;64778;47.314;8.466;2023-03-01T02:12:45;0.10;81.80
75105;DHT22;64778;47.314;8.466;2023-03-01T02:15:13;0.10;81.60
75105;DHT22;64778;47.314;8.466;2023-03-01T02:17:39;0.20;81.40
75105;DHT22;64778;47.314;8.466;2023-03-01T02:20:40;0.20;81.10
75105;DHT22;64778;47.314;8.466;2023-03-01T02:23:10;0.30;80.90
75105;DHT22;64778;47.314;8.466;2023-03-01T02:28:20;0.20;81.10
75105;DHT22;64778;47.314;8.466;2023-03-01T02:30:47;0.30;81.10
75105;DHT22;64778;47.314;8.466;2023-03-01T02:33:34;0.30;81.00
75105;DHT22;64778;47.314;8.466;2023-03-01T02:39:34;0.20;81.00
75105;DHT22;64778;47.314;8.466;2023-03-01T02:42:02;0.10;81.10
75105;DHT22;64778;47.314;8.466;2023-03-01T02:44:31;0.20;81.30
75105;DHT22;64778;47.314;8.466;2023-03-01T02:47:01;0.10;81.80
75105;DHT22;64778;47.314;8.466;2023-03-01T02:49:33;0.00;81.90
75105;DHT22;64778;47.314;8.466;2023-03-01T02:57:14;0.00;82.30
75105;DHT22;64778;47.314;8.466;2023-03-01T02:59:43;0.00;82.40
75105;DHT22;64778;47.314;8.466;2023-03-01T03:02:40;0.00;81.90
75105;DHT22;64778;47.314;8.466;2023-03-01T03:05:13;0.10;81.80
75105;DHT22;64778;47.314;8.466;2023-03-01T03:07:43;0.10;81.90
75105;DHT22;64778;47.314;8.466;2023-03-01T03:10:14;0.00;81.90
75105;DHT22;64778;47.314;8.466;2023-03-01T03:16:03;0.00;82.50
75105;DHT22;64778;47.314;8.466;2023-03-01T03:18:31;-0.10;82.50
75105;DHT22;64778;47.314;8.466;2023-03-01T03:20:57;-0.10;82.50
75105;DHT22;64778;47.314;8.466;2023-03-01T03:23:25;0.00;82.50
75105;DHT22;64778;47.314;8.466;2023-03-01T03:25:51;0.00;82.40
75105;DHT22;64778;47.314;8.466;2023-03-01T03:28:20;0.00;82.40
75105;DHT22;64778;47.314;8.466;2023-03-01T03:30:45;0.00;82.30
75105;DHT22;64778;47.314;8.466;2023-03-01T03:33:15;0.00;81.90
75105;DHT22;64778;47.314;8.466;2023-03-01T03:35:47;-0.10;82.20
75105;DHT22;64778;47.314;8.466;2023-03-01T03:38:15;-0.20;82.70
75105;DHT22;64778;47.314;8.466;2023-03-01T03:43:14;-0.20;82.80
75105;DHT22;64778;47.314;8.466;2023-03-01T03:45:44;-0.20;82.90
75105;DHT22;64778;47.314;8.466;2023-03-01T03:48:12;-0.10;82.40
75105;DHT22;64778;47.314;8.466;2023-03-01T03:50:39;0.00;81.90
75105;DHT22;64778;47.314;8.466;2023-03-01T03:53:14;-0.10;82.20
75105;DHT22;64778;47.314;8.466;2023-03-01T03:55:39;-0.10;82.50
75105;DHT22;64778;47.314;8.466;2023-03-01T03:58:07;0.00;82.10
75105;DHT22;64778;47.314;8.466;2023-03-01T04:00:44;0.10;82.10
75105;DHT22;64778;47.314;8.466;2023-03-01T04:03:11;0.00;82.20
75105;DHT22;64778;47.314;8.466;2023-03-01T04:08:58;0.00;82.00
75105;DHT22;64778;47.314;8.466;2023-03-01T04:11:27;0.00;82.30
75105;DHT22;64778;47.314;8.466;2023-03-01T04:17:15;0.00;82.20
75105;DHT22;64778;47.314;8.466;2023-03-01T04:19:41;0.00;82.50
75105;DHT22;64778;47.314;8.466;2023-03-01T04:22:11;0.10;81.90
75105;DHT22;64778;47.314;8.466;2023-03-01T04:24:46;0.00;82.00
75105;DHT22;64778;47.314;8.466;2023-03-01T04:27:11;-0.20;82.40
75105;DHT22;64778;47.314;8.466;2023-03-01T04:29:42;-0.10;82.50
75105;DHT22;64778;47.314;8.466;2023-03-01T04:32:10;-0.20;82.70
75105;DHT22;64778;47.314;8.466;2023-03-01T04:34:36;-0.10;82.60
75105;DHT22;64778;47.314;8.466;2023-03-01T04:37:03;-0.10;82.60
75105;DHT22;64778;47.314;8.466;2023-03-01T04:39:32;0.00;82.40
75105;DHT22;64778;47.314;8.466;2023-03-01T04:42:00;0.00;82.00
75105;DHT22;64778;47.314;8.466;2023-03-01T04:44:28;0.00;82.30
75105;DHT22;64778;47.314;8.466;2023-03-01T04:46:53;0.10;82.20
75105;DHT22;64778;47.314;8.466;2023-03-01T04:49:19;0.00;81.90
75105;DHT22;64778;47.314;8.466;2023-03-01T04:51:49;0.00;82.10
75105;DHT22;64778;47.314;8.466;2023-03-01T04:57:37;0.10;82.00
75105;DHT22;64778;47.314;8.466;2023-03-01T05:00:08;0.00;82.40
75105;DHT22;64778;47.314;8.466;2023-03-01T05:02:56;0.00;82.70
75105;DHT22;64778;47.314;8.466;2023-03-01T05:05:36;0.00;82.50
75105;DHT22;64778;47.314;8.466;2023-03-01T05:08:07;0.00;82.70
75105;DHT22;64778;47.314;8.466;2023-03-01T05:10:36;0.00;82.80
75105;DHT22;64778;47.314;8.466;2023-03-01T05:13:03;0.10;82.70
75105;DHT22;64778;47.314;8.466;2023-03-01T05:15:31;0.10;82.40
75105;DHT22;64778;47.314;8.466;2023-03-01T05:17:59;0.00;82.50
75105;DHT22;64778;47.314;8.466;2023-03-01T05:23:47;0.20;82.00
75105;DHT22;64778;47.314;8.466;2023-03-01T05:26:14;0.30;81.90
75105;DHT22;64778;47.314;8.466;2023-03-01T05:28:42;0.30;81.80
75105;DHT22;64778;47.314;8.466;2023-03-01T05:31:07;0.30;81.70
75105;DHT22;64778;47.314;8.466;2023-03-01T05:33:38;0.30;82.10
75105;DHT22;64778;47.314;8.466;2023-03-01T05:36:05;0.20;81.80
75105;DHT22;64778;47.314;8.466;2023-03-01T05:38:33;0.20;82.00
75105;DHT22;64778;47.314;8.466;2023-03-01T05:41:02;0.10;82.50
75105;DHT22;64778;47.314;8.466;2023-03-01T05:43:33;0.10;82.70
75105;DHT22;64778;47.314;8.466;2023-03-01T05:45:59;0.10;82.70
75105;DHT22;64778;47.314;8.466;2023-03-01T05:48:25;0.00;83.00
75105;DHT22;64778;47.314;8.466;2023-03-01T05:50:51;0.00;82.90
75105;DHT22;64778;47.314;8.466;2023-03-01T05:53:20;0.10;82.80
75105;DHT22;64778;47.314;8.466;2023-03-01T05:55:49;0.10;82.90
75105;DHT22;64778;47.314;8.466;2023-03-01T05:58:23;0.10;82.60
75105;DHT22;64778;47.314;8.466;2023-03-01T06:00:49;0.10;82.80
75105;DHT22;64778;47.314;8.466;2023-03-01T06:06:41;-0.10;83.30
75105;DHT22;64778;47.314;8.466;2023-03-01T06:09:09;0.00;83.20
75105;DHT22;64778;47.314;8.466;2023-03-01T06:11:38;0.00;82.80
75105;DHT22;64778;47.314;8.466;2023-03-01T06:14:07;0.00;82.80
75105;DHT22;64778;47.314;8.466;2023-03-01T06:16:33;0.00;83.10
75105;DHT22;64778;47.314;8.466;2023-03-01T06:19:01;0.00;83.00
75105;DHT22;64778;47.314;8.466;2023-03-01T06:21:29;0.10;82.90
75105;DHT22;64778;47.314;8.466;2023-03-01T06:23:57;0.10;82.80
75105;DHT22;64778;47.314;8.466;2023-03-01T06:26:22;0.10;83.20
75105;DHT22;64778;47.314;8.466;2023-03-01T06:28:48;0.00;83.00
75105;DHT22;64778;47.314;8.466;2023-03-01T06:31:14;0.10;83.10
75105;DHT22;64778;47.314;8.466;2023-03-01T06:33:42;0.00;83.40
75105;DHT22;64778;47.314;8.466;2023-03-01T06:36:14;0.10;82.90
75105;DHT22;64778;47.314;8.466;2023-03-01T06:38:44;0.20;82.90
75105;DHT22;64778;47.314;8.466;2023-03-01T06:41:09;0.20;82.70
75105;DHT22;64778;47.314;8.466;2023-03-01T06:46:57;0.20;82.70
75105;DHT22;64778;47.314;8.466;2023-03-01T06:49:25;0.30;82.00
75105;DHT22;64778;47.314;8.466;2023-03-01T06:51:53;0.30;82.20
75105;DHT22;64778;47.314;8.466;2023-03-01T06:54:19;0.30;82.10
75105;DHT22;64778;47.314;8.466;2023-03-01T06:56:47;0.40;82.20
75105;DHT22;64778;47.314;8.466;2023-03-01T06:59:13;0.40;81.90
75105;DHT22;64778;47.314;8.466;2023-03-01T07:01:39;0.30;81.80
75105;DHT22;64778;47.314;8.466;2023-03-01T07:04:05;0.40;82.00
75105;DHT22;64778;47.314;8.466;2023-03-01T07:06:30;0.30;82.50
75105;DHT22;64778;47.314;8.466;2023-03-01T07:08:59;0.30;82.40
75105;DHT22;64778;47.314;8.466;2023-03-01T07:11:26;0.30;82.40
75105;DHT22;64778;47.314;8.466;2023-03-01T07:17:16;0.40;87.00
75105;DHT22;64778;47.314;8.466;2023-03-01T07:19:42;0.60;85.50
75105;DHT22;64778;47.314;8.466;2023-03-01T07:22:08;0.80;82.70
75105;DHT22;64778;47.314;8.466;2023-03-01T07:24:36;0.90;82.80
75105;DHT22;64778;47.314;8.466;2023-03-01T07:27:01;1.10;80.60
75105;DHT22;64778;47.314;8.466;2023-03-01T07:29:29;1.10;80.40
75105;DHT22;64778;47.314;8.466;2023-03-01T07:31:55;0.90;81.20
75105;DHT22;64778;47.314;8.466;2023-03-01T07:34:23;0.80;81.00
75105;DHT22;64778;47.314;8.466;2023-03-01T07:36:51;0.80;81.50
75105;DHT22;64778;47.314;8.466;2023-03-01T07:42:39;0.80;81.40
75105;DHT22;64778;47.314;8.466;2023-03-01T07:45:06;0.60;81.60
75105;DHT22;64778;47.314;8.466;2023-03-01T07:47:32;0.40;82.50
75105;DHT22;64778;47.314;8.466;2023-03-01T07:50:00;0.30;82.80
75105;DHT22;64778;47.314;8.466;2023-03-01T07:52:29;0.40;82.80
75105;DHT22;64778;47.314;8.466;2023-03-01T07:54:55;0.30;83.20
75105;DHT22;64778;47.314;8.466;2023-03-01T07:57:20;0.40;83.00
75105;DHT22;64778;47.314;8.466;2023-03-01T07:59:46;0.40;83.10
75105;DHT22;64778;47.314;8.466;2023-03-01T08:02:12;0.30;82.90
75105;DHT22;64778;47.314;8.466;2023-03-01T08:07:59;0.40;82.60
75105;DHT22;64778;47.314;8.466;2023-03-01T08:10:27;0.40;82.60
75105;DHT22;64778;47.314;8.466;2023-03-01T08:12:56;0.40;82.80
75105;DHT22;64778;47.314;8.466;2023-03-01T08:15:21;0.50;82.30
75105;DHT22;64778;47.314;8.466;2023-03-01T08:17:49;0.60;82.40
75105;DHT22;64778;47.314;8.466;2023-03-01T08:20:16;0.70;82.20
75105;DHT22;64778;47.314;8.466;2023-03-01T08:22:43;0.70;81.90
75105;DHT22;64778;47.314;8.466;2023-03-01T08:25:14;0.60;82.30
75105;DHT22;64778;47.314;8.466;2023-03-01T08:27:39;0.70;82.10
75105;DHT22;64778;47.314;8.466;2023-03-01T08:30:06;0.60;82.80
75105;DHT22;64778;47.314;8.466;2023-03-01T08:32:36;0.50;82.50
75105;DHT22;64778;47.314;8.466;2023-03-01T08:38:24;0.50;83.10
75105;DHT22;64778;47.314;8.466;2023-03-01T08:40:54;0.60;82.70
75105;DHT22;64778;47.314;8.466;2023-03-01T08:43:19;0.50;83.10
75105;DHT22;64778;47.314;8.466;2023-03-01T08:45:50;0.60;83.10
75105;DHT22;64778;47.314;8.466;2023-03-01T08:48:15;0.70;82.20
75105;DHT22;64778;47.314;8.466;2023-03-01T08:50:41;0.70;82.40
75105;DHT22;64778;47.314;8.466;2023-03-01T08:53:06;0.70;82.70
75105;DHT22;64778;47.314;8.466;2023-03-01T08:55:34;0.90;82.30
75105;DHT22;64778;47.314;8.466;2023-03-01T08:58:00;0.80;82.40
75105;DHT22;64778;47.314;8.466;2023-03-01T09:00:28;0.60;82.80
75105;DHT22;64778;47.314;8.466;2023-03-01T09:02:53;0.60;83.10
75105;DHT22;64778;47.314;8.466;2023-03-01T09:05:21;0.70;83.00
75105;DHT22;64778;47.314;8.466;2023-03-01T09:07:47;0.80;81.80
75105;DHT22;64778;47.314;8.466;2023-03-01T09:10:15;0.90;81.90
75105;DHT22;64778;47.314;8.466;2023-03-01T09:12:41;0.80;82.10
75105;DHT22;64778;47.314;8.466;2023-03-01T09:15:24;0.90;82.40
75105;DHT22;64778;47.314;8.466;2023-03-01T09:17:52;0.80;82.40
75105;DHT22;64778;47.314;8.466;2023-03-01T09:20:20;0.80;82.60
75105;DHT22;64778;47.314;8.466;2023-03-01T09:26:11;0.80;82.70
75105;DHT22;64778;47.314;8.466;2023-03-01T09:28:37;0.60;83.00
75105;DHT22;64778;47.314;8.466;2023-03-01T09:31:06;0.70;82.90
75105;DHT22;64778;47.314;8.466;2023-03-01T09:33:34;0.80;82.80
75105;DHT22;64778;47.314;8.466;2023-03-01T09:36:05;0.80;82.90
75105;DHT22;64778;47.314;8.466;2023-03-01T09:38:33;0.90;82.50
75105;DHT22;64778;47.314;8.466;2023-03-01T09:41:00;0.80;82.00
75105;DHT22;64778;47.314;8.466;2023-03-01T09:43:46;0.90;82.50
75105;DHT22;64778;47.314;8.466;2023-03-01T09:46:14;1.00;82.40
75105;DHT22;64778;47.314;8.466;2023-03-01T09:48:55;1.00;82.20
75105;DHT22;64778;47.314;8.466;2023-03-01T09:51:29;1.00;82.50
75105;DHT22;64778;47.314;8.466;2023-03-01T09:53:55;1.20;81.90
75105;DHT22;64778;47.314;8.466;2023-03-01T09:56:31;1.10;82.00
75105;DHT22;64778;47.314;8.466;2023-03-01T10:04:28;1.10;82.20
75105;DHT22;64778;47.314;8.466;2023-03-01T10:09:42;1.00;82.50
75105;DHT22;64778;47.314;8.466;2023-03-01T10:12:21;1.10;82.10
75105;DHT22;64778;47.314;8.466;2023-03-01T10:14:53;1.20;82.00
75105;DHT22;64778;47.314;8.466;2023-03-01T10:17:37;1.10;81.90
75105;DHT22;64778;47.314;8.466;2023-03-01T10:20:33;1.00;82.30
75105;DHT22;64778;47.314;8.466;2023-03-01T10:32:23;1.20;82.30
75105;DHT22;64778;47.314;8.466;2023-03-01T10:34:52;1.20;81.70
75105;DHT22;64778;47.314;8.466;2023-03-01T10:37:21;1.20;81.50
75105;DHT22;64778;47.314;8.466;2023-03-01T10:42:57;1.40;81.50
75105;DHT22;64778;47.314;8.466;2023-03-01T10:53:59;1.40;81.50
75105;DHT22;64778;47.314;8.466;2023-03-01T11:00:01;1.30;81.00
75105;DHT22;64778;47.314;8.466;2023-03-01T11:13:31;1.50;80.90
75105;DHT22;64778;47.314;8.466;2023-03-01T11:19:21;1.90;79.80
75105;DHT22;64778;47.314;8.466;2023-03-01T11:22:20;1.80;80.00
75105;DHT22;64778;47.314;8.466;2023-03-01T11:28:12;1.80;80.40
75105;DHT22;64778;47.314;8.466;2023-03-01T11:30:45;1.80;80.10
75105;DHT22;64778;47.314;8.466;2023-03-01T11:36:42;1.70;80.60
75105;DHT22;64778;47.314;8.466;2023-03-01T11:39:20;1.60;80.70
75105;DHT22;64778;47.314;8.466;2023-03-01T11:41:56;1.60;80.70
75105;DHT22;64778;47.314;8.466;2023-03-01T11:50:26;1.50;81.10
75105;DHT22;64778;47.314;8.466;2023-03-01T12:27:21;1.90;79.80
75105;DHT22;64778;47.314;8.466;2023-03-01T12:32:43;1.90;79.80
75105;DHT22;64778;47.314;8.466;2023-03-01T12:38:19;1.50;80.20
75105;DHT22;64778;47.314;8.466;2023-03-01T12:41:10;1.70;80.10
75105;DHT22;64778;47.314;8.466;2023-03-01T12:46:27;1.80;79.70
75105;DHT22;64778;47.314;8.466;2023-03-01T12:51:24;1.80;79.20
75105;DHT22;64778;47.314;8.466;2023-03-01T12:53:53;1.60;79.60
75105;DHT22;64778;47.314;8.466;2023-03-01T12:56:35;1.60;79.80
75105;DHT22;64778;47.314;8.466;2023-03-01T13:07:39;1.80;79.60
75105;DHT22;64778;47.314;8.466;2023-03-01T13:13:02;2.00;79.70
75105;DHT22;64778;47.314;8.466;2023-03-01T13:15:32;2.10;78.90
75105;DHT22;64778;47.314;8.466;2023-03-01T13:24:03;1.60;80.40
75105;DHT22;64778;47.314;8.466;2023-03-01T13:32:27;1.80;79.80
75105;DHT22;64778;47.314;8.466;2023-03-01T13:37:50;2.00;79.00
75105;DHT22;64778;47.314;8.466;2023-03-01T13:42:51;1.90;79.50
75105;DHT22;64778;47.314;8.466;2023-03-01T13:45:32;2.00;79.30
75105;DHT22;64778;47.314;8.466;2023-03-01T13:48:04;2.00;79.10
75105;DHT22;64778;47.314;8.466;2023-03-01T13:50:38;1.80;79.10
75105;DHT22;64778;47.314;8.466;2023-03-01T13:53:14;1.70;79.70
75105;DHT22;64778;47.314;8.466;2023-03-01T13:55:49;1.80;79.70
75105;DHT22;64778;47.314;8.466;2023-03-01T13:58:29;1.80;79.70
75105;DHT22;64778;47.314;8.466;2023-03-01T14:01:05;1.80;79.90
75105;DHT22;64778;47.314;8.466;2023-03-01T14:03:41;1.90;80.20
75105;DHT22;64778;47.314;8.466;2023-03-01T14:06:19;1.80;79.70
75105;DHT22;64778;47.314;8.466;2023-03-01T14:08:46;1.80;80.30
75105;DHT22;64778;47.314;8.466;2023-03-01T14:17:19;1.80;79.70
75105;DHT22;64778;47.314;8.466;2023-03-01T14:19:48;1.70;80.00
75105;DHT22;64778;47.314;8.466;2023-03-01T14:22:24;1.70;80.00
75105;DHT22;64778;47.314;8.466;2023-03-01T14:24:58;1.70;80.00
75105;DHT22;64778;47.314;8.466;2023-03-01T14:27:28;1.70;80.10
75105;DHT22;64778;47.314;8.466;2023-03-01T14:29:58;1.60;80.40
75105;DHT22;64778;47.314;8.466;2023-03-01T14:32:26;1.70;79.80
75105;DHT22;64778;47.314;8.466;2023-03-01T14:34:56;1.80;79.50
75105;DHT22;64778;47.314;8.466;2023-03-01T14:39:51;1.80;79.80
75105;DHT22;64778;47.314;8.466;2023-03-01T14:42:18;1.80;79.50
75105;DHT22;64778;47.314;8.466;2023-03-01T14:44:47;1.90;79.40
75105;DHT22;64778;47.314;8.466;2023-03-01T14:47:22;1.90;79.20
75105;DHT22;64778;47.314;8.466;2023-03-01T14:53:20;1.70;79.40
75105;DHT22;64778;47.314;8.466;2023-03-01T14:55:59;1.70;79.40
75105;DHT22;64778;47.314;8.466;2023-03-01T15:01:51;1.80;79.20
75105;DHT22;64778;47.314;8.466;2023-03-01T15:04:19;1.80;79.00
75105;DHT22;64778;47.314;8.466;2023-03-01T15:06:45;1.60;79.60
75105;DHT22;64778;47.314;8.466;2023-03-01T15:09:16;1.60;79.70
75105;DHT22;64778;47.314;8.466;2023-03-01T15:15:35;1.60;79.90
75105;DHT22;64778;47.314;8.466;2023-03-01T15:20:37;1.50;79.70
75105;DHT22;64778;47.314;8.466;2023-03-01T15:23:05;1.50;79.60
75105;DHT22;64778;47.314;8.466;2023-03-01T15:25:36;1.50;80.20
75105;DHT22;64778;47.314;8.466;2023-03-01T15:28:03;1.60;79.60
75105;DHT22;64778;47.314;8.466;2023-03-01T15:30:33;1.60;79.30
75105;DHT22;64778;47.314;8.466;2023-03-01T15:33:29;1.70;79.50
75105;DHT22;64778;47.314;8.466;2023-03-01T15:38:57;1.70;79.10
75105;DHT22;64778;47.314;8.466;2023-03-01T15:41:30;1.70;79.00
75105;DHT22;64778;47.314;8.466;2023-03-01T15:43:57;1.70;79.40
75105;DHT22;64778;47.314;8.466;2023-03-01T15:46:34;1.80;78.90
75105;DHT22;64778;47.314;8.466;2023-03-01T15:55:28;1.50;79.60
75105;DHT22;64778;47.314;8.466;2023-03-01T16:00:26;1.60;79.60
75105;DHT22;64778;47.314;8.466;2023-03-01T16:06:14;1.50;80.10
75105;DHT22;64778;47.314;8.466;2023-03-01T16:08:39;1.60;79.40
75105;DHT22;64778;47.314;8.466;2023-03-01T16:11:18;1.60;79.90
75105;DHT22;64778;47.314;8.466;2023-03-01T16:13:45;1.70;79.00
75105;DHT22;64778;47.314;8.466;2023-03-01T16:16:14;1.60;79.00
75105;DHT22;64778;47.314;8.466;2023-03-01T16:18:45;1.50;79.60
75105;DHT22;64778;47.314;8.466;2023-03-01T16:21:18;1.50;79.20
75105;DHT22;64778;47.314;8.466;2023-03-01T16:23:44;1.60;79.60
75105;DHT22;64778;47.314;8.466;2023-03-01T16:26:13;1.60;79.50
75105;DHT22;64778;47.314;8.466;2023-03-01T16:32:01;1.50;79.80
75105;DHT22;64778;47.314;8.466;2023-03-01T16:34:27;1.40;80.00
75105;DHT22;64778;47.314;8.466;2023-03-01T16:36:55;1.30;79.80
75105;DHT22;64778;47.314;8.466;2023-03-01T16:39:23;1.40;79.80
75105;DHT22;64778;47.314;8.466;2023-03-01T16:41:48;1.30;80.00
75105;DHT22;64778;47.314;8.466;2023-03-01T16:44:14;1.30;80.00
75105;DHT22;64778;47.314;8.466;2023-03-01T16:46:41;1.20;80.20
75105;DHT22;64778;47.314;8.466;2023-03-01T16:49:10;1.20;80.30
75105;DHT22;64778;47.314;8.466;2023-03-01T16:51:35;1.10;80.50
75105;DHT22;64778;47.314;8.466;2023-03-01T16:54:01;1.20;80.40
75105;DHT22;64778;47.314;8.466;2023-03-01T16:56:30;1.20;80.00
75105;DHT22;64778;47.314;8.466;2023-03-01T16:59:00;1.20;80.20
75105;DHT22;64778;47.314;8.466;2023-03-01T17:01:28;1.10;80.30
75105;DHT22;64778;47.314;8.466;2023-03-01T17:04:03;1.10;80.50
75105;DHT22;64778;47.314;8.466;2023-03-01T17:06:29;1.10;80.50
75105;DHT22;64778;47.314;8.466;2023-03-01T17:12:19;1.20;80.00
75105;DHT22;64778;47.314;8.466;2023-03-01T17:14:45;1.20;80.30
75105;DHT22;64778;47.314;8.466;2023-03-01T17:17:11;1.20;80.20
75105;DHT22;64778;47.314;8.466;2023-03-01T17:19:41;1.20;80.00
75105;DHT22;64778;47.314;8.466;2023-03-01T17:22:09;1.20;80.20
75105;DHT22;64778;47.314;8.466;2023-03-01T17:28:00;1.20;80.30
75105;DHT22;64778;47.314;8.466;2023-03-01T17:33:51;1.00;80.80
75105;DHT22;64778;47.314;8.466;2023-03-01T17:36:19;1.10;80.50
75105;DHT22;64778;47.314;8.466;2023-03-01T17:38:49;1.10;80.20
75105;DHT22;64778;47.314;8.466;2023-03-01T17:44:38;1.20;80.20
75105;DHT22;64778;47.314;8.466;2023-03-01T17:47:04;1.20;80.10
75105;DHT22;64778;47.314;8.466;2023-03-01T17:49:31;1.20;80.20
75105;DHT22;64778;47.314;8.466;2023-03-01T17:51:58;1.20;80.10
75105;DHT22;64778;47.314;8.466;2023-03-01T17:54:23;1.30;79.80
75105;DHT22;64778;47.314;8.466;2023-03-01T17:56:50;1.30;79.70
75105;DHT22;64778;47.314;8.466;2023-03-01T17:59:18;1.30;80.00
75105;DHT22;64778;47.314;8.466;2023-03-01T18:01:44;1.30;80.20
75105;DHT22;64778;47.314;8.466;2023-03-01T18:04:12;1.30;80.00
75105;DHT22;64778;47.314;8.466;2023-03-01T18:06:43;1.30;80.20
75105;DHT22;64778;47.314;8.466;2023-03-01T18:09:11;1.30;80.10
75105;DHT22;64778;47.314;8.466;2023-03-01T18:11:41;1.40;80.30
75105;DHT22;64778;47.314;8.466;2023-03-01T18:14:08;1.40;79.60
75105;DHT22;64778;47.314;8.466;2023-03-01T18:16:34;1.40;80.00
75105;DHT22;64778;47.314;8.466;2023-03-01T18:19:00;1.40;80.00
75105;DHT22;64778;47.314;8.466;2023-03-01T18:21:32;1.30;80.40
75105;DHT22;64778;47.314;8.466;2023-03-01T18:24:00;1.30;80.40
75105;DHT22;64778;47.314;8.466;2023-03-01T18:26:26;1.40;80.70
75105;DHT22;64778;47.314;8.466;2023-03-01T18:28:54;1.30;80.60
75105;DHT22;64778;47.314;8.466;2023-03-01T18:31:23;1.40;80.90
75105;DHT22;64778;47.314;8.466;2023-03-01T18:33:51;1.50;80.30
75105;DHT22;64778;47.314;8.466;2023-03-01T18:36:20;1.60;79.90
75105;DHT22;64778;47.314;8.466;2023-03-01T18:38:52;1.50;79.60
75105;DHT22;64778;47.314;8.466;2023-03-01T18:41:19;1.60;79.50
75105;DHT22;64778;47.314;8.466;2023-03-01T18:43:45;1.60;79.50
75105;DHT22;64778;47.314;8.466;2023-03-01T18:46:16;1.50;79.70
75105;DHT22;64778;47.314;8.466;2023-03-01T18:48:45;1.60;79.80
75105;DHT22;64778;47.314;8.466;2023-03-01T18:51:16;1.50;79.90
75105;DHT22;64778;47.314;8.466;2023-03-01T18:53:45;1.70;79.70
75105;DHT22;64778;47.314;8.466;2023-03-01T18:56:12;1.50;79.40
75105;DHT22;64778;47.314;8.466;2023-03-01T18:58:38;1.50;80.10
75105;DHT22;64778;47.314;8.466;2023-03-01T19:01:04;1.60;79.70
75105;DHT22;64778;47.314;8.466;2023-03-01T19:03:33;1.60;79.60
75105;DHT22;64778;47.314;8.466;2023-03-01T19:06:01;1.60;79.70
75105;DHT22;64778;47.314;8.466;2023-03-01T19:08:30;1.60;79.70
75105;DHT22;64778;47.314;8.466;2023-03-01T19:11:01;1.70;79.70
75105;DHT22;64778;47.314;8.466;2023-03-01T19:13:30;1.70;79.70
75105;DHT22;64778;47.314;8.466;2023-03-01T19:16:07;1.80;79.40
75105;DHT22;64778;47.314;8.466;2023-03-01T19:21:55;1.70;79.60
75105;DHT22;64778;47.314;8.466;2023-03-01T19:24:20;1.80;79.10
75105;DHT22;64778;47.314;8.466;2023-03-01T19:26:46;1.80;79.30
75105;DHT22;64778;47.314;8.466;2023-03-01T19:29:13;1.80;79.30
75105;DHT22;64778;47.314;8.466;2023-03-01T19:34:42;1.90;79.20
75105;DHT22;64778;47.314;8.466;2023-03-01T19:37:13;2.00;78.70
75105;DHT22;64778;47.314;8.466;2023-03-01T19:39:41;1.90;79.10
75105;DHT22;64778;47.314;8.466;2023-03-01T19:42:09;1.90;79.20
75105;DHT22;64778;47.314;8.466;2023-03-01T19:44:35;1.90;79.10
75105;DHT22;64778;47.314;8.466;2023-03-01T19:47:00;1.80;78.80
75105;DHT22;64778;47.314;8.466;2023-03-01T19:49:28;1.80;79.20
75105;DHT22;64778;47.314;8.466;2023-03-01T19:51:54;1.80;79.50
75105;DHT22;64778;47.314;8.466;2023-03-01T19:54:20;1.80;79.50
75105;DHT22;64778;47.314;8.466;2023-03-01T19:56:51;1.80;79.60
75105;DHT22;64778;47.314;8.466;2023-03-01T20:02:20;1.80;79.80
75105;DHT22;64778;47.314;8.466;2023-03-01T20:04:45;1.70;80.00
75105;DHT22;64778;47.314;8.466;2023-03-01T20:07:11;1.70;80.10
75105;DHT22;64778;47.314;8.466;2023-03-01T20:09:39;1.80;79.80
75105;DHT22;64778;47.314;8.466;2023-03-01T20:12:05;1.80;79.80
75105;DHT22;64778;47.314;8.466;2023-03-01T20:14:33;1.80;79.70
75105;DHT22;64778;47.314;8.466;2023-03-01T20:16:59;1.90;79.60
75105;DHT22;64778;47.314;8.466;2023-03-01T20:19:27;1.90;79.40
75105;DHT22;64778;47.314;8.466;2023-03-01T20:21:52;1.90;79.50
75105;DHT22;64778;47.314;8.466;2023-03-01T20:24:18;1.90;79.50
75105;DHT22;64778;47.314;8.466;2023-03-01T20:26:46;1.90;79.20
75105;DHT22;64778;47.314;8.466;2023-03-01T20:29:11;1.90;79.50